sensor_id;sensor_type;location;lat;lon;timestamp;P1;durP1;ratioP1;P2;durP2;ratioP2
9056;SDS011;4563;54.756;9.400;2023-08-20T00:01:12;3.40;;;1.43;;
9056;SDS011;4563;54.756;9.400;2023-08-20T00:03:41;2.77;;;1.20;;
9056;SDS011;4563;54.756;9.400;2023-08-20T00:06:08;2.47;;;1.30;;
9056;SDS011;4563;54.756;9.400;2023-08-20T00:08:36;2.77;;;1.87;;
9056;SDS011;4563;54.756;9.400;2023-08-20T00:11:02;3.57;;;1.50;;
9056;SDS011;4563;54.756;9.400;2023-08-20T00:13:31;3.40;;;1.50;;
9056;SDS011;4563;54.756;9.400;2023-08-20T00:15:58;2.40;;;1.63;;
9056;SDS011;4563;54.756;9.400;2023-08-20T00:18:25;2.63;;;1.67;;
9056;SDS011;4563;54.756;9.400;2023-08-20T00:20:53;2.73;;;1.77;;
9056;SDS011;4563;54.756;9.400;2023-08-20T00:23:20;1.53;;;1.30;;
9056;SDS011;4563;54.756;9.400;2023-08-20T00:25:48;2.43;;;1.27;;
9056;SDS011;4563;54.756;9.400;2023-08-20T00:28:15;3.83;;;2.03;;
9056;SDS011;4563;54.756;9.400;2023-08-20T00:30:43;3.30;;;1.67;;
9056;SDS011;4563;54.756;9.400;2023-08-20T00:33:10;1.70;;;1.60;;
9056;SDS011;4563;54.756;9.400;2023-08-20T00:35:37;3.20;;;1.90;;
9056;SDS011;4563;54.756;9.400;2023-08-20T00:38:04;4.97;;;2.13;;
9056;SDS011;4563;54.756;9.400;2023-08-20T00:40:31;2.77;;;1.77;;
9056;SDS011;4563;54.756;9.400;2023-08-20T00:42:58;3.50;;;1.63;;
9056;SDS011;4563;54.756;9.400;2023-08-20T00:45:26;2.00;;;1.80;;
9056;SDS011;4563;54.756;9.400;2023-08-20T00:47:54;2.90;;;1.70;;
9056;SDS011;4563;54.756;9.400;2023-08-20T00:50:22;1.93;;;1.40;;
9056;SDS011;4563;54.756;9.400;2023-08-20T00:52:49;1.77;;;1.50;;
9056;SDS011;4563;54.756;9.400;2023-08-20T00:55:16;3.50;;;1.80;;
9056;SDS011;4563;54.756;9.400;2023-08-20T00:57:43;2.67;;;1.60;;
9056;SDS011;4563;54.756;9.400;2023-08-20T01:00:10;2.50;;;2.30;;
9056;SDS011;4563;54.756;9.400;2023-08-20T01:02:38;1.73;;;1.37;;
9056;SDS011;4563;54.756;9.400;2023-08-20T01:05:08;1.80;;;1.40;;
9056;SDS011;4563;54.756;9.400;2023-08-20T01:07:48;3.27;;;1.40;;
9056;SDS011;4563;54.756;9.400;2023-08-20T01:10:29;2.27;;;1.47;;
9056;SDS011;4563;54.756;9.400;2023-08-20T01:13:00;1.93;;;1.63;;
9056;SDS011;4563;54.756;9.400;2023-08-20T01:15:28;3.93;;;1.87;;
9056;SDS011;4563;54.756;9.400;2023-08-20T01:17:55;2.53;;;1.70;;
9056;SDS011;4563;54.756;9.400;2023-08-20T01:20:24;3.40;;;1.70;;
9056;SDS011;4563;54.756;9.400;2023-08-20T01:22:59;2.70;;;1.67;;
9056;SDS011;4563;54.756;9.400;2023-08-20T01:25:49;3.00;;;1.70;;
9056;SDS011;4563;54.756;9.400;2023-08-20T01:28:27;3.47;;;1.87;;
9056;SDS011;4563;54.756;9.400;2023-08-20T01:30:55;3.67;;;1.87;;
9056;SDS011;4563;54.756;9.400;2023-08-20T01:33:24;2.63;;;1.43;;
9056;SDS011;4563;54.756;9.400;2023-08-20T01:35:51;1.70;;;1.23;;
9056;SDS011;4563;54.756;9.400;2023-08-20T01:38:18;1.80;;;1.20;;
9056;SDS011;4563;54.756;9.400;2023-08-20T01:40:47;1.33;;;1.23;;
9056;SDS011;4563;54.756;9.400;2023-08-20T01:43:14;1.70;;;1.23;;
9056;SDS011;4563;54.756;9.400;2023-08-20T01:45:42;1.63;;;1.30;;
9056;SDS011;4563;54.756;9.400;2023-08-20T01:48:09;1.30;;;1.30;;
9056;SDS011;4563;54.756;9.400;2023-08-20T01:50:36;1.70;;;1.07;;
9056;SDS011;4563;54.756;9.400;2023-08-20T01:53:03;3.37;;;1.30;;
9056;SDS011;4563;54.756;9.400;2023-08-20T01:55:30;3.40;;;1.10;;
9056;SDS011;4563;54.756;9.400;2023-08-20T01:57:57;1.20;;;0.80;;
9056;SDS011;4563;54.756;9.400;2023-08-20T02:00:24;1.97;;;1.10;;
9056;SDS011;4563;54.756;9.400;2023-08-20T02:02:53;1.17;;;0.90;;
9056;SDS011;4563;54.756;9.400;2023-08-20T02:05:19;1.77;;;0.80;;
9056;SDS011;4563;54.756;9.400;2023-08-20T02:07:46;3.63;;;0.80;;
9056;SDS011;4563;54.756;9.400;2023-08-20T02:10:13;0.97;;;0.97;;
9056;SDS011;4563;54.756;9.400;2023-08-20T02:12:40;1.70;;;0.80;;
9056;SDS011;4563;54.756;9.400;2023-08-20T02:15:08;0.93;;;0.70;;
9056;SDS011;4563;54.756;9.400;2023-08-20T02:17:36;0.80;;;0.80;;
9056;SDS011;4563;54.756;9.400;2023-08-20T02:20:05;1.43;;;0.70;;
9056;SDS011;4563;54.756;9.400;2023-08-20T02:22:34;0.60;;;0.60;;
9056;SDS011;4563;54.756;9.400;2023-08-20T02:25:01;1.57;;;0.63;;
9056;SDS011;4563;54.756;9.400;2023-08-20T02:27:28;7.57;;;1.10;;
9056;SDS011;4563;54.756;9.400;2023-08-20T02:29:55;1.03;;;0.70;;
9056;SDS011;4563;54.756;9.400;2023-08-20T02:32:22;0.40;;;0.40;;
9056;SDS011;4563;54.756;9.400;2023-08-20T02:34:49;1.93;;;0.50;;
9056;SDS011;4563;54.756;9.400;2023-08-20T02:37:17;1.83;;;0.50;;
9056;SDS011;4563;54.756;9.400;2023-08-20T02:39:44;0.60;;;0.60;;
9056;SDS011;4563;54.756;9.400;2023-08-20T02:42:11;1.30;;;0.57;;
9056;SDS011;4563;54.756;9.400;2023-08-20T02:44:38;0.53;;;0.40;;
9056;SDS011;4563;54.756;9.400;2023-08-20T02:47:08;0.43;;;0.40;;
9056;SDS011;4563;54.756;9.400;2023-08-20T02:49:35;0.40;;;0.40;;
9056;SDS011;4563;54.756;9.400;2023-08-20T02:52:02;0.73;;;0.40;;
9056;SDS011;4563;54.756;9.400;2023-08-20T02:54:30;3.00;;;0.43;;
9056;SDS011;4563;54.756;9.400;2023-08-20T02:56:58;0.93;;;0.50;;
9056;SDS011;4563;54.756;9.400;2023-08-20T02:59:25;1.73;;;0.50;;
9056;SDS011;4563;54.756;9.400;2023-08-20T03:01:52;1.23;;;0.50;;
9056;SDS011;4563;54.756;9.400;2023-08-20T03:04:18;3.33;;;0.50;;
9056;SDS011;4563;54.756;9.400;2023-08-20T03:06:45;0.93;;;0.40;;
9056;SDS011;4563;54.756;9.400;2023-08-20T03:09:12;2.20;;;0.40;;
9056;SDS011;4563;54.756;9.400;2023-08-20T03:11:40;2.47;;;0.50;;
9056;SDS011;4563;54.756;9.400;2023-08-20T03:14:08;1.73;;;0.80;;
9056;SDS011;4563;54.756;9.400;2023-08-20T03:16:34;3.50;;;0.60;;
9056;SDS011;4563;54.756;9.400;2023-08-20T03:19:01;1.80;;;0.40;;
9056;SDS011;4563;54.756;9.400;2023-08-20T03:21:28;2.20;;;0.50;;
9056;SDS011;4563;54.756;9.400;2023-08-20T03:23:55;0.30;;;0.30;;
9056;SDS011;4563;54.756;9.400;2023-08-20T03:26:22;0.30;;;0.30;;
9056;SDS011;4563;54.756;9.400;2023-08-20T03:28:50;1.13;;;0.40;;
9056;SDS011;4563;54.756;9.400;2023-08-20T03:31:17;0.30;;;0.30;;
9056;SDS011;4563;54.756;9.400;2023-08-20T03:33:44;1.17;;;0.60;;
9056;SDS011;4563;54.756;9.400;2023-08-20T03:36:11;0.50;;;0.50;;
9056;SDS011;4563;54.756;9.400;2023-08-20T03:38:38;1.03;;;0.70;;
9056;SDS011;4563;54.756;9.400;2023-08-20T03:41:04;4.00;;;0.60;;
9056;SDS011;4563;54.756;9.400;2023-08-20T03:43:31;1.50;;;0.50;;
9056;SDS011;4563;54.756;9.400;2023-08-20T03:45:59;0.60;;;0.60;;
9056;SDS011;4563;54.756;9.400;2023-08-20T03:48:27;1.57;;;0.70;;
9056;SDS011;4563;54.756;9.400;2023-08-20T03:50:54;9.53;;;1.17;;
9056;SDS011;4563;54.756;9.400;2023-08-20T03:53:20;4.37;;;0.70;;
9056;SDS011;4563;54.756;9.400;2023-08-20T03:55:47;0.97;;;0.60;;
9056;SDS011;4563;54.756;9.400;2023-08-20T03:58:14;0.73;;;0.60;;
9056;SDS011;4563;54.756;9.400;2023-08-20T04:00:41;2.70;;;0.80;;
9056;SDS011;4563;54.756;9.400;2023-08-20T04:03:10;0.87;;;0.73;;
9056;SDS011;4563;54.756;9.400;2023-08-20T04:05:37;0.80;;;0.80;;
9056;SDS011;4563;54.756;9.400;2023-08-20T04:08:04;1.27;;;0.80;;
9056;SDS011;4563;54.756;9.400;2023-08-20T04:10:32;1.50;;;0.90;;
9056;SDS011;4563;54.756;9.400;2023-08-20T04:12:59;0.90;;;0.90;;
9056;SDS011;4563;54.756;9.400;2023-08-20T04:15:25;2.67;;;0.83;;
9056;SDS011;4563;54.756;9.400;2023-08-20T04:17:52;1.13;;;1.07;;
9056;SDS011;4563;54.756;9.400;2023-08-20T04:20:20;1.10;;;1.00;;
9056;SDS011;4563;54.756;9.400;2023-08-20T04:22:48;1.10;;;0.83;;
9056;SDS011;4563;54.756;9.400;2023-08-20T04:25:15;2.30;;;1.33;;
9056;SDS011;4563;54.756;9.400;2023-08-20T04:27:42;1.80;;;0.90;;
9056;SDS011;4563;54.756;9.400;2023-08-20T04:30:09;1.90;;;1.20;;
9056;SDS011;4563;54.756;9.400;2023-08-20T04:32:37;1.00;;;1.00;;
9056;SDS011;4563;54.756;9.400;2023-08-20T04:35:03;3.80;;;1.70;;
9056;SDS011;4563;54.756;9.400;2023-08-20T04:37:32;3.30;;;1.00;;
9056;SDS011;4563;54.756;9.400;2023-08-20T04:39:59;1.27;;;1.17;;
9056;SDS011;4563;54.756;9.400;2023-08-20T04:42:29;3.70;;;1.33;;
9056;SDS011;4563;54.756;9.400;2023-08-20T04:44:56;5.07;;;1.93;;
9056;SDS011;4563;54.756;9.400;2023-08-20T04:47:23;3.53;;;1.83;;
9056;SDS011;4563;54.756;9.400;2023-08-20T04:49:50;5.53;;;1.83;;
9056;SDS011;4563;54.756;9.400;2023-08-20T04:52:17;4.53;;;2.10;;
9056;SDS011;4563;54.756;9.400;2023-08-20T04:54:46;4.50;;;2.40;;
9056;SDS011;4563;54.756;9.400;2023-08-20T04:57:13;5.33;;;3.20;;
9056;SDS011;4563;54.756;9.400;2023-08-20T04:59:41;4.43;;;2.60;;
9056;SDS011;4563;54.756;9.400;2023-08-20T05:02:10;3.60;;;1.70;;
9056;SDS011;4563;54.756;9.400;2023-08-20T05:04:36;2.83;;;1.87;;
9056;SDS011;4563;54.756;9.400;2023-08-20T05:07:04;5.67;;;2.00;;
9056;SDS011;4563;54.756;9.400;2023-08-20T05:09:31;8.17;;;1.60;;
9056;SDS011;4563;54.756;9.400;2023-08-20T05:11:59;5.73;;;1.40;;
9056;SDS011;4563;54.756;9.400;2023-08-20T05:14:27;6.00;;;1.10;;
9056;SDS011;4563;54.756;9.400;2023-08-20T05:16:54;4.30;;;1.03;;
9056;SDS011;4563;54.756;9.400;2023-08-20T05:19:21;3.03;;;1.00;;
9056;SDS011;4563;54.756;9.400;2023-08-20T05:21:48;3.17;;;1.00;;
9056;SDS011;4563;54.756;9.400;2023-08-20T05:24:14;3.57;;;0.90;;
9056;SDS011;4563;54.756;9.400;2023-08-20T05:26:41;4.93;;;0.90;;
9056;SDS011;4563;54.756;9.400;2023-08-20T05:29:09;2.07;;;0.77;;
9056;SDS011;4563;54.756;9.400;2023-08-20T05:31:38;10.10;;;1.13;;
9056;SDS011;4563;54.756;9.400;2023-08-20T05:34:04;4.53;;;0.80;;
9056;SDS011;4563;54.756;9.400;2023-08-20T05:36:31;6.93;;;0.80;;
9056;SDS011;4563;54.756;9.400;2023-08-20T05:38:58;7.17;;;1.00;;
9056;SDS011;4563;54.756;9.400;2023-08-20T05:41:25;2.13;;;0.70;;
9056;SDS011;4563;54.756;9.400;2023-08-20T05:43:51;3.77;;;0.80;;
9056;SDS011;4563;54.756;9.400;2023-08-20T05:46:19;2.00;;;1.00;;
9056;SDS011;4563;54.756;9.400;2023-08-20T05:48:46;7.40;;;1.20;;
9056;SDS011;4563;54.756;9.400;2023-08-20T05:51:13;16.83;;;0.90;;
9056;SDS011;4563;54.756;9.400;2023-08-20T05:53:40;17.23;;;1.00;;
9056;SDS011;4563;54.756;9.400;2023-08-20T05:56:07;9.27;;;0.80;;
9056;SDS011;4563;54.756;9.400;2023-08-20T05:58:35;4.47;;;0.80;;
9056;SDS011;4563;54.756;9.400;2023-08-20T06:01:01;5.83;;;0.80;;
9056;SDS011;4563;54.756;9.400;2023-08-20T06:03:29;5.00;;;0.67;;
9056;SDS011;4563;54.756;9.400;2023-08-20T06:05:57;1.53;;;0.63;;
9056;SDS011;4563;54.756;9.400;2023-08-20T06:08:24;12.47;;;1.00;;
9056;SDS011;4563;54.756;9.400;2023-08-20T06:10:51;2.10;;;0.83;;
9056;SDS011;4563;54.756;9.400;2023-08-20T06:13:17;0.70;;;0.70;;
9056;SDS011;4563;54.756;9.400;2023-08-20T06:15:44;1.57;;;0.70;;
9056;SDS011;4563;54.756;9.400;2023-08-20T06:18:11;1.23;;;0.90;;
9056;SDS011;4563;54.756;9.400;2023-08-20T06:20:40;5.47;;;1.00;;
9056;SDS011;4563;54.756;9.400;2023-08-20T06:23:07;1.07;;;0.97;;
9056;SDS011;4563;54.756;9.400;2023-08-20T06:25:34;0.80;;;0.80;;
9056;SDS011;4563;54.756;9.400;2023-08-20T06:28:02;1.63;;;1.10;;
9056;SDS011;4563;54.756;9.400;2023-08-20T06:30:30;5.47;;;1.30;;
9056;SDS011;4563;54.756;9.400;2023-08-20T06:32:56;1.77;;;1.40;;
9056;SDS011;4563;54.756;9.400;2023-08-20T06:35:26;5.80;;;1.83;;
9056;SDS011;4563;54.756;9.400;2023-08-20T06:37:56;2.90;;;1.37;;
9056;SDS011;4563;54.756;9.400;2023-08-20T06:40:23;3.60;;;1.70;;
9056;SDS011;4563;54.756;9.400;2023-08-20T06:42:50;5.40;;;1.80;;
9056;SDS011;4563;54.756;9.400;2023-08-20T06:45:16;7.87;;;3.00;;
9056;SDS011;4563;54.756;9.400;2023-08-20T06:47:43;4.57;;;2.57;;
9056;SDS011;4563;54.756;9.400;2023-08-20T06:50:10;4.77;;;2.10;;
9056;SDS011;4563;54.756;9.400;2023-08-20T06:52:37;8.03;;;2.37;;
9056;SDS011;4563;54.756;9.400;2023-08-20T06:55:06;4.73;;;2.07;;
9056;SDS011;4563;54.756;9.400;2023-08-20T06:57:33;5.30;;;2.37;;
9056;SDS011;4563;54.756;9.400;2023-08-20T07:00:00;4.57;;;2.13;;
9056;SDS011;4563;54.756;9.400;2023-08-20T07:02:28;6.53;;;2.40;;
9056;SDS011;4563;54.756;9.400;2023-08-20T07:04:55;6.63;;;1.93;;
9056;SDS011;4563;54.756;9.400;2023-08-20T07:07:22;5.17;;;2.30;;
9056;SDS011;4563;54.756;9.400;2023-08-20T07:09:48;5.93;;;2.53;;
9056;SDS011;4563;54.756;9.400;2023-08-20T07:12:17;3.97;;;1.80;;
9056;SDS011;4563;54.756;9.400;2023-08-20T07:14:43;3.90;;;1.97;;
9056;SDS011;4563;54.756;9.400;2023-08-20T07:17:11;4.60;;;2.00;;
9056;SDS011;4563;54.756;9.400;2023-08-20T07:19:41;2.73;;;1.90;;
9056;SDS011;4563;54.756;9.400;2023-08-20T07:22:07;4.50;;;2.37;;
9056;SDS011;4563;54.756;9.400;2023-08-20T07:24:37;1.83;;;1.50;;
9056;SDS011;4563;54.756;9.400;2023-08-20T07:27:06;3.50;;;1.60;;
9056;SDS011;4563;54.756;9.400;2023-08-20T07:29:38;2.10;;;1.67;;
9056;SDS011;4563;54.756;9.400;2023-08-20T07:32:07;4.30;;;1.87;;
9056;SDS011;4563;54.756;9.400;2023-08-20T07:34:34;3.17;;;1.53;;
9056;SDS011;4563;54.756;9.400;2023-08-20T07:37:00;2.33;;;1.73;;
9056;SDS011;4563;54.756;9.400;2023-08-20T07:39:27;4.17;;;2.00;;
9056;SDS011;4563;54.756;9.400;2023-08-20T07:41:54;1.83;;;1.40;;
9056;SDS011;4563;54.756;9.400;2023-08-20T07:44:21;1.63;;;1.33;;
9056;SDS011;4563;54.756;9.400;2023-08-20T07:46:49;2.40;;;1.20;;
9056;SDS011;4563;54.756;9.400;2023-08-20T07:49:16;3.10;;;1.87;;
9056;SDS011;4563;54.756;9.400;2023-08-20T07:51:43;3.23;;;1.50;;
9056;SDS011;4563;54.756;9.400;2023-08-20T07:54:09;3.10;;;1.73;;
9056;SDS011;4563;54.756;9.400;2023-08-20T07:56:37;2.80;;;2.20;;
9056;SDS011;4563;54.756;9.400;2023-08-20T07:59:05;3.57;;;1.67;;
9056;SDS011;4563;54.756;9.400;2023-08-20T08:01:32;2.10;;;1.13;;
9056;SDS011;4563;54.756;9.400;2023-08-20T08:04:00;3.87;;;1.50;;
9056;SDS011;4563;54.756;9.400;2023-08-20T08:06:27;2.73;;;1.17;;
9056;SDS011;4563;54.756;9.400;2023-08-20T08:08:53;4.70;;;1.70;;
9056;SDS011;4563;54.756;9.400;2023-08-20T08:11:20;3.17;;;1.33;;
9056;SDS011;4563;54.756;9.400;2023-08-20T08:13:47;2.83;;;1.17;;
9056;SDS011;4563;54.756;9.400;2023-08-20T08:16:14;2.80;;;1.50;;
9056;SDS011;4563;54.756;9.400;2023-08-20T08:18:42;3.70;;;1.53;;
9056;SDS011;4563;54.756;9.400;2023-08-20T08:21:10;2.77;;;1.07;;
9056;SDS011;4563;54.756;9.400;2023-08-20T08:23:36;3.47;;;1.63;;
9056;SDS011;4563;54.756;9.400;2023-08-20T08:26:03;3.63;;;1.20;;
9056;SDS011;4563;54.756;9.400;2023-08-20T08:28:30;2.43;;;1.40;;
9056;SDS011;4563;54.756;9.400;2023-08-20T08:30:57;3.80;;;1.00;;
9056;SDS011;4563;54.756;9.400;2023-08-20T08:33:24;1.80;;;0.90;;
9056;SDS011;4563;54.756;9.400;2023-08-20T08:35:50;1.83;;;0.97;;
9056;SDS011;4563;54.756;9.400;2023-08-20T08:38:18;4.07;;;0.93;;
9056;SDS011;4563;54.756;9.400;2023-08-20T08:40:45;2.67;;;0.90;;
9056;SDS011;4563;54.756;9.400;2023-08-20T08:43:13;2.20;;;0.80;;
9056;SDS011;4563;54.756;9.400;2023-08-20T08:45:42;3.83;;;1.67;;
9056;SDS011;4563;54.756;9.400;2023-08-20T08:48:12;2.60;;;1.20;;
9056;SDS011;4563;54.756;9.400;2023-08-20T08:50:40;1.67;;;0.73;;
9056;SDS011;4563;54.756;9.400;2023-08-20T08:53:07;3.37;;;1.13;;
9056;SDS011;4563;54.756;9.400;2023-08-20T08:55:36;3.37;;;2.93;;
9056;SDS011;4563;54.756;9.400;2023-08-20T08:58:03;2.10;;;0.97;;
9056;SDS011;4563;54.756;9.400;2023-08-20T09:00:30;1.10;;;0.60;;
9056;SDS011;4563;54.756;9.400;2023-08-20T09:02:59;2.07;;;0.80;;
9056;SDS011;4563;54.756;9.400;2023-08-20T09:05:26;1.77;;;0.60;;
9056;SDS011;4563;54.756;9.400;2023-08-20T09:07:54;1.53;;;0.57;;
9056;SDS011;4563;54.756;9.400;2023-08-20T09:10:24;1.37;;;0.70;;
9056;SDS011;4563;54.756;9.400;2023-08-20T09:12:53;1.53;;;0.40;;
9056;SDS011;4563;54.756;9.400;2023-08-20T09:15:21;0.70;;;0.40;;
9056;SDS011;4563;54.756;9.400;2023-08-20T09:17:56;3.90;;;0.70;;
9056;SDS011;4563;54.756;9.400;2023-08-20T09:20:33;1.87;;;0.63;;
9056;SDS011;4563;54.756;9.400;2023-08-20T09:23:00;2.23;;;0.70;;
9056;SDS011;4563;54.756;9.400;2023-08-20T09:25:27;1.13;;;0.70;;
9056;SDS011;4563;54.756;9.400;2023-08-20T09:27:55;1.57;;;0.50;;
9056;SDS011;4563;54.756;9.400;2023-08-20T09:30:22;2.07;;;0.83;;
9056;SDS011;4563;54.756;9.400;2023-08-20T09:33:02;2.47;;;0.90;;
9056;SDS011;4563;54.756;9.400;2023-08-20T09:35:30;1.15;;;0.65;;
9056;SDS011;4563;54.756;9.400;2023-08-20T09:38:00;1.80;;;0.50;;
9056;SDS011;4563;54.756;9.400;2023-08-20T09:40:28;2.05;;;0.82;;
9056;SDS011;4563;54.756;9.400;2023-08-20T09:42:56;0.85;;;0.55;;
9056;SDS011;4563;54.756;9.400;2023-08-20T09:45:23;1.55;;;0.60;;
9056;SDS011;4563;54.756;9.400;2023-08-20T09:47:53;1.42;;;0.47;;
9056;SDS011;4563;54.756;9.400;2023-08-20T09:50:22;4.53;;;0.60;;
9056;SDS011;4563;54.756;9.400;2023-08-20T09:52:52;2.08;;;0.50;;
9056;SDS011;4563;54.756;9.400;2023-08-20T09:55:27;1.85;;;0.57;;
9056;SDS011;4563;54.756;9.400;2023-08-20T09:57:57;1.02;;;0.40;;
9056;SDS011;4563;54.756;9.400;2023-08-20T10:00:25;1.50;;;0.73;;
9056;SDS011;4563;54.756;9.400;2023-08-20T10:02:53;1.00;;;0.50;;
9056;SDS011;4563;54.756;9.400;2023-08-20T10:05:21;1.80;;;0.43;;
9056;SDS011;4563;54.756;9.400;2023-08-20T10:07:49;0.90;;;0.63;;
9056;SDS011;4563;54.756;9.400;2023-08-20T10:10:17;3.10;;;0.90;;
9056;SDS011;4563;54.756;9.400;2023-08-20T10:12:44;1.70;;;0.80;;
9056;SDS011;4563;54.756;9.400;2023-08-20T10:15:14;1.95;;;0.52;;
9056;SDS011;4563;54.756;9.400;2023-08-20T10:17:42;0.70;;;0.47;;
9056;SDS011;4563;54.756;9.400;2023-08-20T10:20:12;0.47;;;0.40;;
9056;SDS011;4563;54.756;9.400;2023-08-20T10:22:41;1.08;;;0.52;;
9056;SDS011;4563;54.756;9.400;2023-08-20T10:25:09;0.70;;;0.60;;
9056;SDS011;4563;54.756;9.400;2023-08-20T10:27:38;0.50;;;0.40;;
9056;SDS011;4563;54.756;9.400;2023-08-20T10:30:07;2.15;;;0.70;;
9056;SDS011;4563;54.756;9.400;2023-08-20T10:32:49;0.80;;;0.50;;
9056;SDS011;4563;54.756;9.400;2023-08-20T10:35:17;1.42;;;0.70;;
9056;SDS011;4563;54.756;9.400;2023-08-20T10:38:00;0.57;;;0.45;;
9056;SDS011;4563;54.756;9.400;2023-08-20T10:40:47;1.23;;;0.50;;
9056;SDS011;4563;54.756;9.400;2023-08-20T10:43:28;0.60;;;0.30;;
9056;SDS011;4563;54.756;9.400;2023-08-20T10:46:02;2.45;;;0.70;;
9056;SDS011;4563;54.756;9.400;2023-08-20T10:48:35;0.82;;;0.63;;
9056;SDS011;4563;54.756;9.400;2023-08-20T10:51:09;2.05;;;0.50;;
9056;SDS011;4563;54.756;9.400;2023-08-20T10:53:37;1.02;;;0.52;;
9056;SDS011;4563;54.756;9.400;2023-08-20T10:56:07;1.17;;;0.60;;
9056;SDS011;4563;54.756;9.400;2023-08-20T10:58:35;0.70;;;0.32;;
9056;SDS011;4563;54.756;9.400;2023-08-20T11:01:14;0.57;;;0.43;;
9056;SDS011;4563;54.756;9.400;2023-08-20T11:03:45;2.35;;;0.43;;
9056;SDS011;4563;54.756;9.400;2023-08-20T11:06:13;1.02;;;0.50;;
9056;SDS011;4563;54.756;9.400;2023-08-20T11:08:41;0.60;;;0.40;;
9056;SDS011;4563;54.756;9.400;2023-08-20T11:11:10;1.30;;;0.55;;
9056;SDS011;4563;54.756;9.400;2023-08-20T11:13:37;1.75;;;0.63;;
9056;SDS011;4563;54.756;9.400;2023-08-20T11:16:07;0.80;;;0.50;;
9056;SDS011;4563;54.756;9.400;2023-08-20T11:18:34;1.00;;;0.50;;
9056;SDS011;4563;54.756;9.400;2023-08-20T11:21:03;0.80;;;0.47;;
9056;SDS011;4563;54.756;9.400;2023-08-20T11:23:30;1.27;;;0.50;;
9056;SDS011;4563;54.756;9.400;2023-08-20T11:25:57;1.17;;;0.43;;
9056;SDS011;4563;54.756;9.400;2023-08-20T11:28:25;0.38;;;0.38;;
9056;SDS011;4563;54.756;9.400;2023-08-20T11:30:53;0.30;;;0.30;;
9056;SDS011;4563;54.756;9.400;2023-08-20T11:33:21;0.95;;;0.60;;
9056;SDS011;4563;54.756;9.400;2023-08-20T11:35:48;1.02;;;0.70;;
9056;SDS011;4563;54.756;9.400;2023-08-20T11:38:16;0.55;;;0.35;;
9056;SDS011;4563;54.756;9.400;2023-08-20T11:40:43;0.55;;;0.30;;
9056;SDS011;4563;54.756;9.400;2023-08-20T11:43:10;1.33;;;0.47;;
9056;SDS011;4563;54.756;9.400;2023-08-20T11:45:43;0.57;;;0.40;;
9056;SDS011;4563;54.756;9.400;2023-08-20T11:48:11;1.15;;;0.50;;
9056;SDS011;4563;54.756;9.400;2023-08-20T11:50:38;0.65;;;0.40;;
9056;SDS011;4563;54.756;9.400;2023-08-20T11:53:05;1.23;;;0.68;;
9056;SDS011;4563;54.756;9.400;2023-08-20T11:55:34;0.50;;;0.50;;
9056;SDS011;4563;54.756;9.400;2023-08-20T11:58:01;1.33;;;0.57;;
9056;SDS011;4563;54.756;9.400;2023-08-20T12:00:30;1.10;;;0.40;;
9056;SDS011;4563;54.756;9.400;2023-08-20T12:02:57;0.90;;;0.40;;
9056;SDS011;4563;54.756;9.400;2023-08-20T12:05:26;0.73;;;0.65;;
9056;SDS011;4563;54.756;9.400;2023-08-20T12:07:56;3.53;;;1.10;;
9056;SDS011;4563;54.756;9.400;2023-08-20T12:10:24;1.25;;;0.68;;
9056;SDS011;4563;54.756;9.400;2023-08-20T12:12:53;0.57;;;0.40;;
9056;SDS011;4563;54.756;9.400;2023-08-20T12:15:21;1.55;;;0.50;;
9056;SDS011;4563;54.756;9.400;2023-08-20T12:17:58;0.80;;;0.57;;
9056;SDS011;4563;54.756;9.400;2023-08-20T12:20:26;1.00;;;0.60;;
9056;SDS011;4563;54.756;9.400;2023-08-20T12:22:56;1.08;;;0.70;;
9056;SDS011;4563;54.756;9.400;2023-08-20T12:25:24;0.70;;;0.70;;
9056;SDS011;4563;54.756;9.400;2023-08-20T12:27:51;1.60;;;0.55;;
9056;SDS011;4563;54.756;9.400;2023-08-20T12:30:19;3.05;;;0.60;;
9056;SDS011;4563;54.756;9.400;2023-08-20T12:32:46;1.23;;;0.80;;
9056;SDS011;4563;54.756;9.400;2023-08-20T12:35:13;1.48;;;0.65;;
9056;SDS011;4563;54.756;9.400;2023-08-20T12:37:40;0.80;;;0.40;;
9056;SDS011;4563;54.756;9.400;2023-08-20T12:40:07;1.40;;;0.68;;
9056;SDS011;4563;54.756;9.400;2023-08-20T12:42:36;0.60;;;0.60;;
9056;SDS011;4563;54.756;9.400;2023-08-20T12:45:04;0.55;;;0.55;;
9056;SDS011;4563;54.756;9.400;2023-08-20T12:47:33;0.30;;;0.30;;
9056;SDS011;4563;54.756;9.400;2023-08-20T12:50:00;1.83;;;0.60;;
9056;SDS011;4563;54.756;9.400;2023-08-20T12:52:28;1.15;;;0.68;;
9056;SDS011;4563;54.756;9.400;2023-08-20T12:54:55;1.40;;;0.57;;
9056;SDS011;4563;54.756;9.400;2023-08-20T12:57:21;2.10;;;0.57;;
9056;SDS011;4563;54.756;9.400;2023-08-20T12:59:48;1.38;;;0.50;;
9056;SDS011;4563;54.756;9.400;2023-08-20T13:02:15;0.70;;;0.60;;
9056;SDS011;4563;54.756;9.400;2023-08-20T13:04:43;2.00;;;0.52;;
9056;SDS011;4563;54.756;9.400;2023-08-20T13:07:11;1.33;;;0.60;;
9056;SDS011;4563;54.756;9.400;2023-08-20T13:09:39;0.63;;;0.40;;
9056;SDS011;4563;54.756;9.400;2023-08-20T13:12:06;2.70;;;0.65;;
9056;SDS011;4563;54.756;9.400;2023-08-20T13:14:37;0.57;;;0.43;;
9056;SDS011;4563;54.756;9.400;2023-08-20T13:17:05;1.52;;;0.60;;
9056;SDS011;4563;54.756;9.400;2023-08-20T13:19:33;1.08;;;0.55;;
9056;SDS011;4563;54.756;9.400;2023-08-20T13:22:01;0.88;;;0.50;;
9056;SDS011;4563;54.756;9.400;2023-08-20T13:24:28;0.70;;;0.40;;
9056;SDS011;4563;54.756;9.400;2023-08-20T13:26:55;0.60;;;0.32;;
9056;SDS011;4563;54.756;9.400;2023-08-20T13:29:21;0.95;;;0.50;;
9056;SDS011;4563;54.756;9.400;2023-08-20T13:31:48;1.10;;;0.45;;
9056;SDS011;4563;54.756;9.400;2023-08-20T13:34:15;2.15;;;0.80;;
9056;SDS011;4563;54.756;9.400;2023-08-20T13:36:42;0.70;;;0.30;;
9056;SDS011;4563;54.756;9.400;2023-08-20T13:39:10;1.02;;;0.60;;
9056;SDS011;4563;54.756;9.400;2023-08-20T13:41:38;0.50;;;0.50;;
9056;SDS011;4563;54.756;9.400;2023-08-20T13:44:08;1.30;;;0.50;;
9056;SDS011;4563;54.756;9.400;2023-08-20T13:46:35;1.38;;;0.70;;
9056;SDS011;4563;54.756;9.400;2023-08-20T13:49:02;0.68;;;0.30;;
9056;SDS011;4563;54.756;9.400;2023-08-20T13:51:29;0.88;;;0.38;;
9056;SDS011;4563;54.756;9.400;2023-08-20T13:53:56;0.60;;;0.43;;
9056;SDS011;4563;54.756;9.400;2023-08-20T13:56:25;1.33;;;0.45;;
9056;SDS011;4563;54.756;9.400;2023-08-20T13:58:52;0.75;;;0.30;;
9056;SDS011;4563;54.756;9.400;2023-08-20T14:01:19;1.10;;;0.50;;
9056;SDS011;4563;54.756;9.400;2023-08-20T14:03:46;0.63;;;0.50;;
9056;SDS011;4563;54.756;9.400;2023-08-20T14:06:13;0.65;;;0.50;;
9056;SDS011;4563;54.756;9.400;2023-08-20T14:08:39;1.52;;;0.50;;
9056;SDS011;4563;54.756;9.400;2023-08-20T14:11:06;0.60;;;0.30;;
9056;SDS011;4563;54.756;9.400;2023-08-20T14:13:34;0.63;;;0.50;;
9056;SDS011;4563;54.756;9.400;2023-08-20T14:16:01;1.67;;;0.45;;
9056;SDS011;4563;54.756;9.400;2023-08-20T14:18:28;0.60;;;0.60;;
9056;SDS011;4563;54.756;9.400;2023-08-20T14:20:55;1.02;;;0.60;;
9056;SDS011;4563;54.756;9.400;2023-08-20T14:23:23;0.80;;;0.52;;
9056;SDS011;4563;54.756;9.400;2023-08-20T14:25:52;0.95;;;0.40;;
9056;SDS011;4563;54.756;9.400;2023-08-20T14:28:20;2.35;;;1.02;;
9056;SDS011;4563;54.756;9.400;2023-08-20T14:30:48;1.02;;;0.40;;
9056;SDS011;4563;54.756;9.400;2023-08-20T14:33:15;1.88;;;0.55;;
9056;SDS011;4563;54.756;9.400;2023-08-20T14:35:42;0.95;;;0.52;;
9056;SDS011;4563;54.756;9.400;2023-08-20T14:38:09;1.30;;;0.40;;
9056;SDS011;4563;54.756;9.400;2023-08-20T14:40:37;1.10;;;0.50;;
9056;SDS011;4563;54.756;9.400;2023-08-20T14:43:05;0.98;;;0.47;;
9056;SDS011;4563;54.756;9.400;2023-08-20T14:45:32;0.50;;;0.50;;
9056;SDS011;4563;54.756;9.400;2023-08-20T14:48:00;0.82;;;0.35;;
9056;SDS011;4563;54.756;9.400;2023-08-20T14:50:28;0.77;;;0.50;;
9056;SDS011;4563;54.756;9.400;2023-08-20T14:52:55;0.85;;;0.50;;
9056;SDS011;4563;54.756;9.400;2023-08-20T14:55:21;0.47;;;0.47;;
9056;SDS011;4563;54.756;9.400;2023-08-20T14:57:48;1.13;;;0.50;;
9056;SDS011;4563;54.756;9.400;2023-08-20T15:00:15;0.45;;;0.40;;
9056;SDS011;4563;54.756;9.400;2023-08-20T15:02:42;1.10;;;0.63;;
9056;SDS011;4563;54.756;9.400;2023-08-20T15:05:10;1.20;;;0.60;;
9056;SDS011;4563;54.756;9.400;2023-08-20T15:07:37;1.23;;;0.50;;
9056;SDS011;4563;54.756;9.400;2023-08-20T15:10:04;0.32;;;0.32;;
9056;SDS011;4563;54.756;9.400;2023-08-20T15:12:32;1.00;;;0.57;;
9056;SDS011;4563;54.756;9.400;2023-08-20T15:15:00;1.48;;;0.50;;
9056;SDS011;4563;54.756;9.400;2023-08-20T15:17:27;0.88;;;0.50;;
9056;SDS011;4563;54.756;9.400;2023-08-20T15:19:54;0.73;;;0.43;;